createdAt,value
2018-03-06T00:01:46.856Z,107.60
2018-03-06T00:04:14.715Z,106.72
2018-03-06T00:06:42.550Z,106.82
2018-03-06T00:09:10.378Z,107.12
2018-03-06T00:11:38.163Z,104.78
2018-03-06T00:14:05.974Z,106.22
2018-03-06T00:16:33.784Z,106.10
2018-03-06T00:19:01.635Z,104.53
2018-03-06T00:21:29.507Z,105.75
2018-03-06T00:23:58.851Z,102.87
2018-03-06T00:26:27.435Z,104.95
2018-03-06T00:28:56.037Z,101.40
2018-03-06T00:31:23.864Z,102.90
2018-03-06T00:33:51.839Z,103.62
2018-03-06T00:36:19.704Z,101.57
2018-03-06T00:38:47.492Z,103.28
2018-03-06T00:41:15.551Z,101.90
2018-03-06T00:43:43.392Z,102.38
2018-03-06T00:46:11.213Z,102.32
2018-03-06T00:48:39.798Z,100.80
2018-03-06T00:51:07.615Z,101.97
2018-03-06T00:53:36.239Z,101.05
2018-03-06T00:56:04.120Z,101.95
2018-03-06T00:58:31.944Z,102.47
2018-03-06T01:00:59.893Z,101.43
2018-03-06T01:03:27.712Z,101.68
2018-03-06T01:05:55.843Z,103.00
2018-03-06T01:08:23.661Z,104.63
2018-03-06T01:10:51.516Z,103.82
2018-03-06T01:13:19.507Z,103.75
2018-03-06T01:15:47.390Z,100.18
2018-03-06T01:18:15.211Z,102.00
2018-03-06T01:20:42.994Z,101.95
2018-03-06T01:23:10.775Z,101.55
2018-03-06T01:25:38.638Z,102.43
2018-03-06T01:28:06.472Z,102.05
2018-03-06T01:30:34.267Z,102.60
2018-03-06T01:33:02.115Z,104.38
2018-03-06T01:35:29.906Z,104.85
2018-03-06T01:37:57.722Z,105.53
2018-03-06T01:40:25.548Z,104.10
2018-03-06T01:42:53.367Z,103.82
2018-03-06T01:45:21.160Z,104.80
2018-03-06T01:47:49.831Z,103.25
2018-03-06T01:50:17.703Z,102.90
2018-03-06T01:52:45.483Z,101.45
2018-03-06T01:55:13.257Z,100.65
2018-03-06T01:57:41.099Z,101.30
2018-03-06T02:00:08.917Z,101.90
2018-03-06T02:02:37.492Z,99.97
2018-03-06T02:05:06.070Z,101.75
2018-03-06T02:07:34.655Z,101.93
2018-03-06T02:10:02.503Z,100.35
2018-03-06T02:12:30.391Z,101.55
2018-03-06T02:14:59.086Z,100.68
2018-03-06T02:17:27.631Z,99.82
2018-03-06T02:19:55.450Z,100.43
2018-03-06T02:22:23.266Z,101.68
2018-03-06T02:24:51.913Z,101.45
2018-03-06T02:27:19.733Z,100.07
2018-03-06T02:29:48.296Z,99.87
2018-03-06T02:32:16.133Z,100.72
2018-03-06T02:34:43.954Z,101.12
2018-03-06T02:37:12.512Z,99.62
2018-03-06T02:39:41.148Z,98.93
2018-03-06T02:42:08.974Z,101.10
2018-03-06T02:44:36.794Z,102.38
2018-03-06T02:47:04.623Z,99.97
2018-03-06T02:49:33.238Z,101.20
2018-03-06T02:52:01.039Z,101.87
2018-03-06T02:54:28.826Z,101.53
2018-03-06T02:56:56.690Z,101.45
2018-03-06T02:59:25.132Z,101.43
2018-03-06T03:01:52.964Z,100.22
2018-03-06T03:04:20.796Z,100.72
2018-03-06T03:06:49.394Z,100.75
2018-03-06T03:09:17.227Z,100.25
2018-03-06T03:11:45.051Z,100.28
2018-03-06T03:14:12.845Z,102.30
2018-03-06T03:16:40.686Z,100.75
2018-03-06T03:19:08.489Z,99.40
2018-03-06T03:21:37.220Z,100.65
2018-03-06T03:24:05.096Z,100.12
2018-03-06T03:26:32.982Z,102.93
2018-03-06T03:29:00.764Z,103.45
2018-03-06T03:31:29.373Z,103.50
2018-03-06T03:33:57.914Z,103.68
2018-03-06T03:36:25.696Z,103.85
2018-03-06T03:38:54.372Z,102.07
2018-03-06T03:41:22.179Z,101.62
2018-03-06T03:43:50.763Z,101.10
2018-03-06T03:46:18.594Z,101.70
2018-03-06T03:48:46.437Z,99.18
2018-03-06T03:51:14.288Z,99.07
2018-03-06T03:53:42.081Z,100.40
2018-03-06T03:56:11.682Z,100.60
2018-03-06T03:58:39.590Z,100.75
2018-03-06T04:01:08.184Z,101.53
2018-03-06T04:03:35.987Z,102.05
2018-03-06T04:06:03.844Z,99.93
2018-03-06T04:08:31.666Z,101.43
2018-03-06T04:10:59.491Z,100.85
2018-03-06T04:13:27.313Z,99.97
2018-03-06T04:15:55.980Z,99.25
2018-03-06T04:18:24.548Z,102.60
2018-03-06T04:20:53.160Z,101.82
2018-03-06T04:23:20.968Z,101.85
2018-03-06T04:25:48.787Z,101.62
2018-03-06T04:28:16.641Z,100.57
2018-03-06T04:30:45.323Z,102.38
2018-03-06T04:33:13.883Z,101.57
2018-03-06T04:35:41.680Z,100.45
2018-03-06T04:38:09.538Z,102.25
2018-03-06T04:40:37.340Z,101.40
2018-03-06T04:43:05.232Z,102.70
2018-03-06T04:45:33.045Z,100.85
2018-03-06T04:48:00.872Z,98.87
2018-03-06T04:50:28.688Z,100.78
2018-03-06T04:52:56.503Z,99.62
2018-03-06T04:55:24.370Z,102.82
2018-03-06T04:57:52.199Z,102.00
2018-03-06T05:00:20.048Z,102.97
2018-03-06T05:02:47.843Z,102.18
2018-03-06T05:05:15.729Z,101.87
2018-03-06T05:07:43.575Z,103.97
2018-03-06T05:10:11.423Z,106.03
2018-03-06T05:12:39.280Z,107.32
2018-03-06T05:15:07.159Z,109.65
2018-03-06T05:17:34.984Z,110.28
2018-03-06T05:20:02.918Z,108.82
2018-03-06T05:22:31.472Z,114.22
2018-03-06T05:24:59.292Z,107.60
2018-03-06T05:27:27.875Z,112.43
2018-03-06T05:29:56.497Z,106.72
2018-03-06T05:32:24.440Z,107.68
2018-03-06T05:34:52.274Z,105.07
2018-03-06T05:37:20.113Z,109.03
2018-03-06T05:39:48.698Z,107.43
2018-03-06T05:42:16.528Z,105.53
2018-03-06T05:44:44.410Z,107.20
2018-03-06T05:47:12.322Z,104.68
2018-03-06T05:49:40.987Z,104.22
2018-03-06T05:52:08.767Z,104.80
2018-03-06T05:54:36.611Z,107.22
2018-03-06T05:57:04.399Z,105.70
2018-03-06T05:59:33.014Z,106.10
2018-03-06T06:02:00.827Z,104.93
2018-03-06T06:04:28.638Z,107.43
2018-03-06T06:06:57.220Z,107.40
2018-03-06T06:09:25.040Z,108.25
2018-03-06T06:11:52.855Z,107.18
2018-03-06T06:14:21.435Z,110.55
2018-03-06T06:16:49.359Z,108.13
2018-03-06T06:19:17.241Z,112.60
2018-03-06T06:21:45.033Z,111.75
2018-03-06T06:24:12.816Z,112.88
2018-03-06T06:26:41.349Z,114.83
2018-03-06T06:29:09.136Z,115.70
2018-03-06T06:31:36.896Z,114.10
2018-03-06T06:34:04.697Z,111.57
2018-03-06T06:36:32.472Z,111.20
2018-03-06T06:39:00.303Z,112.83
2018-03-06T06:41:28.154Z,114.10
2018-03-06T06:43:55.922Z,114.37
2018-03-06T06:46:57.676Z,109.37
2018-03-06T06:49:25.487Z,110.80
2018-03-06T06:51:53.276Z,111.15
2018-03-06T06:54:21.109Z,107.85
2018-03-06T06:56:49.707Z,106.20
2018-03-06T06:59:17.496Z,108.27
2018-03-06T07:01:45.295Z,109.77
2018-03-06T07:04:13.091Z,110.30
2018-03-06T07:06:40.897Z,111.50
2018-03-06T07:09:08.703Z,112.10
2018-03-06T07:11:37.311Z,111.43
2018-03-06T07:14:05.127Z,109.90
2018-03-06T07:16:32.941Z,114.83
2018-03-06T07:19:00.787Z,113.10
2018-03-06T07:21:29.375Z,113.67
2018-03-06T07:23:58.061Z,114.03
2018-03-06T07:26:26.663Z,113.17
2018-03-06T07:28:54.677Z,113.10
2018-03-06T07:31:22.468Z,112.43
2018-03-06T07:33:51.024Z,111.00
2018-03-06T07:36:18.820Z,113.70
2018-03-06T07:38:47.433Z,111.80
2018-03-06T07:41:15.382Z,110.60
2018-03-06T07:43:43.940Z,110.47
2018-03-06T07:46:11.692Z,111.00
2018-03-06T07:48:39.455Z,112.23
2018-03-06T07:51:07.396Z,113.80
2018-03-06T07:53:35.176Z,113.70
2018-03-06T07:56:02.990Z,114.77
2018-03-06T07:58:30.755Z,114.43
2018-03-06T08:00:58.537Z,109.13
2018-03-06T08:03:26.367Z,112.83
2018-03-06T08:05:54.223Z,114.57
2018-03-06T08:08:22.894Z,112.07
2018-03-06T08:10:50.691Z,113.40
2018-03-06T08:13:19.442Z,112.13
2018-03-06T08:15:47.320Z,113.33
2018-03-06T08:18:15.342Z,113.07
2018-03-06T08:20:43.418Z,113.77
2018-03-06T08:23:11.649Z,113.83
2018-03-06T08:25:40.233Z,112.13
2018-03-06T08:28:08.785Z,111.30
2018-03-06T08:30:36.759Z,111.63
2018-03-06T08:33:04.565Z,110.40
2018-03-06T08:35:32.436Z,110.97
2018-03-06T08:38:00.268Z,108.00
2018-03-06T08:40:28.071Z,111.17
2018-03-06T08:42:55.867Z,107.70
2018-03-06T08:45:23.681Z,112.43
2018-03-06T08:47:52.288Z,110.33
2018-03-06T08:50:20.156Z,110.67
2018-03-06T08:52:48.024Z,111.60
2018-03-06T08:55:15.892Z,111.40
2018-03-06T08:57:43.741Z,110.33
2018-03-06T09:00:11.756Z,109.53
2018-03-06T09:02:39.560Z,108.47
2018-03-06T09:05:08.633Z,109.37
2018-03-06T09:07:36.805Z,112.47
2018-03-06T09:10:04.668Z,112.07
2018-03-06T09:12:32.947Z,111.67
2018-03-06T09:15:00.967Z,109.53
2018-03-06T09:17:32.177Z,109.63
2018-03-06T09:20:00.068Z,109.30
2018-03-06T09:22:28.031Z,110.40
2018-03-06T09:24:55.960Z,109.83
2018-03-06T09:27:24.199Z,111.10
2018-03-06T09:29:52.185Z,110.43
2018-03-06T09:32:20.387Z,110.50
2018-03-06T09:34:48.231Z,111.07
2018-03-06T09:37:16.095Z,110.40
2018-03-06T09:39:43.958Z,111.87
2018-03-06T09:42:11.760Z,112.23
2018-03-06T09:44:40.468Z,112.97
2018-03-06T09:47:08.358Z,120.97
2018-03-06T09:49:36.243Z,131.60
2018-03-06T09:52:04.431Z,127.87
2018-03-06T09:54:32.252Z,133.17
2018-03-06T09:57:00.268Z,127.30
2018-03-06T09:59:28.172Z,114.03
2018-03-06T10:01:56.223Z,114.30
2018-03-06T10:04:24.590Z,112.17
2018-03-06T10:06:52.540Z,112.20
2018-03-06T10:09:20.890Z,111.93
2018-03-06T10:11:50.037Z,110.00
2018-03-06T10:14:18.740Z,112.53
2018-03-06T10:16:47.006Z,113.57
2018-03-06T10:19:15.679Z,113.97
2018-03-06T10:21:43.690Z,111.87
2018-03-06T10:24:11.728Z,111.30
2018-03-06T10:26:40.603Z,111.53
2018-03-06T10:29:09.194Z,112.93
2018-03-06T10:31:38.077Z,112.37
2018-03-06T10:34:07.489Z,109.87
2018-03-06T10:36:36.536Z,112.17
2018-03-06T10:39:04.856Z,110.00
2018-03-06T10:41:33.876Z,109.77
2018-03-06T10:44:01.823Z,109.00
2018-03-06T10:46:30.416Z,110.20
2018-03-06T10:48:59.043Z,108.03
2018-03-06T10:51:27.089Z,109.70
2018-03-06T10:53:55.171Z,111.30
2018-03-06T10:56:23.344Z,109.90
2018-03-06T10:58:51.480Z,109.43
2018-03-06T11:01:25.145Z,110.57
2018-03-06T11:03:53.042Z,110.57
2018-03-06T11:06:21.832Z,109.57
2018-03-06T11:08:50.382Z,108.87
2018-03-06T11:11:18.626Z,108.93
2018-03-06T11:13:46.762Z,109.73
2018-03-06T11:16:15.753Z,109.50
2018-03-06T11:18:44.747Z,108.77
2018-03-06T11:21:13.845Z,109.13
2018-03-06T11:23:42.692Z,110.43
2018-03-06T11:26:10.940Z,109.43
2018-03-06T11:28:39.045Z,111.60
2018-03-06T11:31:07.244Z,111.53
2018-03-06T11:33:35.325Z,114.40
2018-03-06T11:36:04.182Z,112.50
2018-03-06T11:38:32.284Z,114.07
2018-03-06T11:41:01.170Z,113.07
2018-03-06T11:43:29.955Z,113.70
2018-03-06T11:45:58.928Z,115.37
2018-03-06T11:48:27.105Z,116.23
2018-03-06T11:50:55.176Z,111.57
2018-03-06T11:53:23.374Z,115.20
2018-03-06T11:55:52.342Z,113.53
2018-03-06T11:58:21.368Z,112.67
2018-03-06T12:00:50.254Z,114.37
2018-03-06T12:03:19.348Z,115.70
2018-03-06T12:05:48.323Z,115.57
2018-03-06T12:08:17.520Z,114.57
2018-03-06T12:10:46.620Z,115.10
2018-03-06T12:13:15.315Z,115.20
2018-03-06T12:15:43.885Z,116.97
2018-03-06T12:18:12.432Z,115.23
2018-03-06T12:20:40.227Z,113.70
2018-03-06T12:23:08.031Z,114.77
2018-03-06T12:25:35.937Z,115.20
2018-03-06T12:28:03.803Z,113.57
2018-03-06T12:30:31.748Z,115.90
2018-03-06T12:32:59.596Z,116.50
2018-03-06T12:35:27.546Z,121.77
2018-03-06T12:37:56.430Z,127.97
2018-03-06T12:40:25.029Z,133.97
2018-03-06T12:42:53.128Z,129.33
2018-03-06T12:45:21.127Z,117.30
2018-03-06T12:47:49.145Z,113.93
2018-03-06T12:50:17.304Z,115.07
2018-03-06T12:52:46.006Z,114.23
2018-03-06T12:55:14.033Z,114.10
2018-03-06T12:57:42.703Z,112.67
2018-03-06T13:00:28.956Z,112.10
2018-03-06T13:02:57.870Z,121.45
2018-03-06T13:05:26.224Z,114.43
2018-03-06T13:07:54.601Z,112.60
2018-03-06T13:10:22.644Z,113.97
2018-03-06T13:12:51.866Z,109.40
2018-03-06T13:15:20.367Z,110.90
2018-03-06T13:17:48.611Z,110.20
2018-03-06T13:20:16.736Z,110.50
2018-03-06T13:22:45.017Z,110.50
2018-03-06T13:25:13.360Z,109.63
2018-03-06T13:27:41.794Z,111.57
2018-03-06T13:30:10.962Z,108.87
2018-03-06T13:32:39.352Z,112.03
2018-03-06T13:35:07.710Z,113.07
2018-03-06T13:37:35.911Z,114.47
2018-03-06T13:40:04.581Z,112.17
2018-03-06T13:42:32.714Z,114.03
2018-03-06T13:45:00.810Z,113.50
2018-03-06T13:47:28.870Z,115.97
2018-03-06T13:49:57.017Z,112.20
2018-03-06T13:52:26.026Z,113.47
2018-03-06T13:54:54.001Z,113.47
2018-03-06T13:57:22.237Z,110.07
2018-03-06T13:59:51.264Z,113.33
2018-03-06T14:02:19.430Z,112.60
2018-03-06T14:04:47.585Z,111.83
2018-03-06T14:07:15.664Z,114.17
2018-03-06T14:09:43.905Z,111.23
2018-03-06T14:12:11.912Z,111.83
2018-03-06T14:14:40.025Z,111.27
2018-03-06T14:17:08.145Z,109.17
2018-03-06T14:19:36.285Z,113.10
2018-03-06T14:22:04.351Z,110.17
2018-03-06T14:24:32.401Z,111.30
2018-03-06T14:27:00.484Z,110.47
2018-03-06T14:29:29.251Z,110.07
2018-03-06T14:31:57.222Z,108.40
2018-03-06T14:34:25.244Z,110.97
2018-03-06T14:36:53.338Z,107.67
2018-03-06T14:39:21.325Z,110.47
2018-03-06T14:41:49.300Z,113.00
2018-03-06T14:44:17.317Z,112.23
2018-03-06T14:46:46.122Z,114.07
2018-03-06T14:49:14.080Z,113.00
2018-03-06T14:51:42.872Z,113.10
2018-03-06T14:54:10.876Z,114.60
2018-03-06T14:56:38.890Z,113.70
2018-03-06T14:59:06.889Z,113.80
2018-03-06T15:01:34.841Z,113.50
2018-03-06T15:04:03.693Z,114.67
2018-03-06T15:06:31.706Z,114.27
2018-03-06T15:08:59.830Z,114.07
2018-03-06T15:11:27.922Z,114.33
2018-03-06T15:13:55.848Z,113.37
2018-03-06T15:16:23.935Z,112.87
2018-03-06T15:18:52.100Z,114.10
2018-03-06T15:21:20.213Z,113.53
2018-03-06T15:23:49.143Z,112.33
2018-03-06T15:26:17.258Z,112.43
2018-03-06T15:28:45.443Z,111.70
2018-03-06T15:31:13.600Z,110.90
2018-03-06T15:33:41.683Z,109.23
2018-03-06T15:36:09.657Z,110.27
2018-03-06T15:38:37.788Z,111.60
2018-03-06T15:41:05.909Z,111.30
2018-03-06T15:43:34.859Z,111.57
2018-03-06T15:46:02.860Z,110.73
2018-03-06T15:48:31.429Z,111.17
2018-03-06T15:50:59.823Z,111.60
2018-03-06T15:53:27.935Z,112.83
2018-03-06T15:55:55.958Z,112.47
2018-03-06T15:58:24.112Z,112.17
2018-03-06T16:00:52.217Z,111.87
2018-03-06T16:03:21.193Z,112.37
2018-03-06T16:05:49.271Z,111.60
2018-03-06T16:08:17.438Z,111.30
2018-03-06T16:10:45.613Z,111.83
2018-03-06T16:13:13.801Z,112.03
2018-03-06T16:15:42.694Z,113.30
2018-03-06T16:18:11.645Z,113.57
2018-03-06T16:20:39.920Z,113.27
2018-03-06T16:23:07.905Z,110.23
2018-03-06T16:25:36.267Z,111.07
2018-03-06T16:28:04.598Z,111.27
2018-03-06T16:30:33.239Z,108.73
2018-03-06T16:33:01.307Z,109.10
2018-03-06T16:35:29.674Z,111.07
2018-03-06T16:37:58.857Z,108.47
2018-03-06T16:40:27.033Z,109.50
2018-03-06T16:42:55.486Z,107.87
2018-03-06T16:45:23.833Z,111.13
2018-03-06T16:47:52.776Z,110.57
2018-03-06T16:50:21.894Z,109.73
2018-03-06T16:52:50.010Z,108.30
2018-03-06T16:55:18.269Z,109.00
2018-03-06T16:57:47.364Z,107.57
2018-03-06T17:00:16.401Z,107.87
2018-03-06T17:02:44.595Z,108.43
2018-03-06T17:05:14.492Z,110.03
2018-03-06T17:07:42.606Z,108.73
2018-03-06T17:10:10.763Z,110.25
2018-03-06T17:12:38.891Z,108.77
2018-03-06T17:15:07.039Z,109.33
2018-03-06T17:17:36.719Z,110.77
2018-03-06T17:20:04.891Z,111.73
2018-03-06T17:22:32.994Z,110.30
2018-03-06T17:25:01.869Z,107.73
2018-03-06T17:27:30.002Z,109.93
2018-03-06T17:29:58.098Z,110.60
2018-03-06T17:32:26.181Z,110.37
2018-03-06T17:34:54.322Z,108.13
2018-03-06T17:37:22.331Z,109.13
2018-03-06T17:39:51.549Z,108.47
2018-03-06T17:42:20.392Z,107.17
2018-03-06T17:44:48.601Z,109.10
2018-03-06T17:47:17.735Z,110.37
2018-03-06T17:49:45.918Z,112.40
2018-03-06T17:52:14.179Z,112.10
2018-03-06T17:54:42.220Z,112.93
2018-03-06T17:57:10.999Z,113.83
2018-03-06T17:59:39.948Z,113.47
2018-03-06T18:02:08.092Z,112.50
2018-03-06T18:04:36.122Z,114.10
2018-03-06T18:07:04.090Z,113.83
2018-03-06T18:09:32.984Z,115.25
2018-03-06T18:12:01.050Z,114.80
2018-03-06T18:14:29.147Z,116.03
2018-03-06T18:16:58.004Z,114.70
2018-03-06T18:19:26.004Z,116.47
2018-03-06T18:21:54.885Z,113.23
2018-03-06T18:24:23.680Z,116.20
2018-03-06T18:26:51.777Z,114.93
2018-03-06T18:29:20.100Z,114.90
2018-03-06T18:31:48.304Z,113.17
2018-03-06T18:34:16.549Z,112.33
2018-03-06T18:36:44.712Z,113.03
2018-03-06T18:39:12.916Z,113.40
2018-03-06T18:41:41.716Z,114.50
2018-03-06T18:44:09.785Z,113.73
2018-03-06T18:46:37.898Z,114.53
2018-03-06T18:49:06.103Z,115.80
2018-03-06T18:51:34.319Z,112.70
2018-03-06T18:54:02.410Z,112.78
2018-03-06T18:56:30.626Z,114.43
2018-03-06T18:58:58.648Z,113.80
2018-03-06T19:01:58.543Z,114.67
2018-03-06T19:04:38.580Z,112.03
2018-03-06T19:07:07.588Z,108.43
2018-03-06T19:09:35.756Z,111.27
2018-03-06T19:12:03.954Z,110.93
2018-03-06T19:14:32.085Z,111.87
2018-03-06T19:17:01.142Z,113.60
2018-03-06T19:19:29.687Z,113.43
2018-03-06T19:21:58.130Z,113.80
2018-03-06T19:24:26.443Z,115.90
2018-03-06T19:26:54.719Z,114.30
2018-03-06T19:29:22.776Z,114.57
2018-03-06T19:31:51.655Z,113.40
2018-03-06T19:34:20.573Z,113.80
2018-03-06T19:36:48.887Z,116.03
2018-03-06T19:39:21.917Z,114.30
2018-03-06T19:41:50.697Z,113.53
2018-03-06T19:44:19.758Z,112.63
2018-03-06T19:46:47.746Z,110.93
2018-03-06T19:49:16.130Z,107.80
2018-03-06T19:51:44.201Z,114.50
2018-03-06T19:54:13.082Z,113.37
2018-03-06T19:56:41.881Z,112.68
2018-03-06T19:59:10.758Z,117.32
2018-03-06T20:01:38.954Z,109.68
2018-03-06T20:04:08.076Z,107.10
2018-03-06T20:06:36.148Z,110.93
2018-03-06T20:09:04.640Z,106.17
2018-03-06T20:11:32.792Z,111.03
2018-03-06T20:14:00.894Z,110.97
2018-03-06T20:16:28.920Z,111.27
2018-03-06T20:19:03.321Z,111.80
2018-03-06T20:21:32.225Z,110.83
2018-03-06T20:24:06.134Z,111.00
2018-03-06T20:26:35.117Z,109.70
2018-03-06T20:29:04.057Z,106.47
2018-03-06T20:31:37.629Z,110.37
2018-03-06T20:34:05.564Z,120.28
2018-03-06T20:36:34.903Z,143.05
2018-03-06T20:39:25.101Z,131.70
2018-03-06T20:41:54.569Z,127.05
2018-03-06T20:44:23.893Z,122.90
2018-03-06T20:46:58.942Z,120.95
2018-03-06T20:49:28.367Z,121.17
2018-03-06T20:51:57.742Z,124.65
2018-03-06T20:54:32.701Z,126.87
2018-03-06T20:57:02.064Z,137.68
2018-03-06T20:59:31.391Z,127.20
2018-03-06T21:02:00.723Z,123.33
2018-03-06T21:04:30.061Z,122.20
2018-03-06T21:06:59.368Z,127.50
2018-03-06T21:09:29.003Z,117.82
2018-03-06T21:11:58.383Z,118.82
2018-03-06T21:14:27.744Z,130.82
2018-03-06T21:16:57.158Z,119.62
2018-03-06T21:19:26.489Z,128.43
2018-03-06T21:21:55.796Z,124.90
2018-03-06T21:24:25.111Z,128.05
2018-03-06T21:26:54.503Z,119.97
2018-03-06T21:29:24.747Z,118.28
2018-03-06T21:31:55.149Z,142.87
2018-03-06T21:34:24.528Z,120.95
2018-03-06T21:36:53.856Z,106.77
2018-03-06T21:39:23.164Z,111.17
2018-03-06T21:41:52.442Z,112.13
2018-03-06T21:44:21.794Z,111.65
2018-03-06T21:46:51.078Z,137.80
2018-03-06T21:49:20.254Z,106.90
2018-03-06T21:51:49.842Z,108.47
2018-03-06T21:54:19.114Z,111.23
2018-03-06T21:56:48.569Z,110.60
2018-03-06T21:59:17.906Z,110.47
2018-03-06T22:01:47.181Z,110.47
2018-03-06T22:04:16.466Z,108.40
2018-03-06T22:06:45.704Z,110.80
2018-03-06T22:09:14.969Z,111.87
2018-03-06T22:11:44.248Z,110.97
2018-03-06T22:14:13.535Z,111.20
2018-03-06T22:16:42.783Z,107.73
2018-03-06T22:19:12.031Z,108.20
2018-03-06T22:21:41.263Z,109.63
2018-03-06T22:24:10.542Z,107.30
2018-03-06T22:26:39.800Z,110.10
2018-03-06T22:29:09.104Z,106.67
2018-03-06T22:31:38.218Z,108.37
2018-03-06T22:34:07.422Z,107.30
2018-03-06T22:36:36.575Z,108.43
2018-03-06T22:39:05.978Z,106.95
2018-03-06T22:41:35.337Z,105.55
2018-03-06T22:44:04.631Z,107.72
2018-03-06T22:46:34.039Z,107.03
2018-03-06T22:49:03.394Z,106.25
2018-03-06T22:51:32.743Z,103.50
2018-03-06T22:54:02.246Z,104.90
2018-03-06T22:56:31.650Z,105.12
2018-03-06T22:59:01.153Z,109.80
2018-03-06T23:01:30.556Z,108.82
2018-03-06T23:04:00.223Z,108.32
2018-03-06T23:06:29.772Z,108.47
2018-03-06T23:08:59.277Z,107.83
2018-03-06T23:11:28.576Z,110.63
2018-03-06T23:13:58.184Z,110.55
2018-03-06T23:16:27.507Z,109.47
2018-03-06T23:18:56.910Z,108.73
2018-03-06T23:21:26.115Z,108.63
2018-03-06T23:23:55.306Z,106.22
2018-03-06T23:26:24.711Z,108.60
2018-03-06T23:28:53.936Z,110.12
2018-03-06T23:31:23.413Z,107.15
2018-03-06T23:33:53.154Z,106.45
2018-03-06T23:36:22.522Z,108.90
2018-03-06T23:38:51.867Z,108.78
2018-03-06T23:41:21.331Z,108.57
2018-03-06T23:43:50.634Z,108.35
2018-03-06T23:46:20.164Z,107.18
2018-03-06T23:48:49.659Z,108.30
2018-03-06T23:51:19.068Z,106.25
2018-03-06T23:53:48.676Z,107.93
2018-03-06T23:56:18.084Z,105.93
2018-03-06T23:58:47.572Z,106.35
